Time;durP1;ratioP1;P1;durP2;ratioP2;P2;SDS_P1;SDS_P2;PMS_P1;PMS_P2;Temp;Humidity;BMP_temperature;BMP_pressure;BME280_temperature;BME280_humidity;BME280_pressure;Samples;Min_cycle;Max_cycle;Signal;HPM_P1;HPM_P2
2022/11/17 00:00:40;;;;;;;10.33;3.97;;;10.80;99.90;;;;;;4964365;28;20382;-71
2022/11/17 00:03:11;;;;;;;6.87;3.93;;;10.80;99.90;;;;;;4977405;28;20307;-71
2022/11/17 00:05:38;;;;;;;11.57;4.53;;;10.70;99.90;;;;;;4964698;28;20656;-71
2022/11/17 00:08:04;;;;;;;10.30;3.90;;;10.70;99.90;;;;;;4977353;28;20234;-70
2022/11/17 00:10:31;;;;;;;9.13;5.03;;;10.70;99.90;;;;;;4979751;28;20199;-70
2022/11/17 00:15:43;;;;;;;11.27;4.60;;;10.50;99.90;;;;;;4974647;28;20199;-71
2022/11/17 00:23:47;;;;;;;6.07;4.00;;;10.50;99.90;;;;;;4976559;28;20672;-69
2022/11/17 00:26:19;;;;;;;6.83;4.50;;;10.40;99.90;;;;;;4977005;28;20317;-69
2022/11/17 00:28:50;;;;;;;10.47;4.57;;;10.40;99.90;;;;;;4977682;28;20677;-69
2022/11/17 00:34:05;;;;;;;10.43;4.43;;;10.30;99.90;;;;;;4975383;28;20236;-69
2022/11/17 00:36:33;;;;;;;7.90;4.73;;;10.30;99.90;;;;;;4988607;28;20594;-70
2022/11/17 00:39:00;;;;;;;10.43;5.10;;;10.20;99.90;;;;;;4978486;28;20633;-70
2022/11/17 00:41:27;;;;;;;10.63;5.10;;;10.20;99.90;;;;;;4976164;28;20212;-70
2022/11/17 00:43:54;;;;;;;14.03;5.07;;;10.10;99.90;;;;;;4978815;28;20243;-71
2022/11/17 00:46:21;;;;;;;11.93;5.33;;;10.10;99.90;;;;;;4993495;28;20242;-70
2022/11/17 00:48:48;;;;;;;9.83;5.60;;;10.10;99.90;;;;;;4978772;28;20609;-70
2022/11/17 00:51:15;;;;;;;10.70;5.50;;;10.10;99.90;;;;;;4977853;28;20318;-70
2022/11/17 00:53:41;;;;;;;12.77;5.47;;;10.10;99.90;;;;;;4964941;28;20289;-71
2022/11/17 00:56:08;;;;;;;10.13;5.67;;;10.10;99.90;;;;;;4960757;28;20219;-71
2022/11/17 00:58:35;;;;;;;12.10;5.47;;;10.00;99.90;;;;;;4976671;28;20234;-71
2022/11/17 01:01:02;;;;;;;12.33;5.83;;;10.00;99.90;;;;;;4978007;28;20211;-71
2022/11/17 01:03:30;;;;;;;13.10;6.30;;;10.00;99.90;;;;;;4978125;28;20672;-72
2022/11/17 01:06:09;;;;;;;11.67;6.07;;;10.00;99.90;;;;;;4978348;28;20223;-70
2022/11/17 01:08:36;;;;;;;12.73;6.07;;;10.00;99.90;;;;;;4973442;28;20199;-71
2022/11/17 01:11:08;;;;;;;19.03;6.80;;;10.00;99.90;;;;;;4977660;28;20218;-71
2022/11/17 01:13:36;;;;;;;17.70;6.10;;;10.00;99.90;;;;;;4977383;28;20216;-70
2022/11/17 01:16:12;;;;;;;14.80;5.53;;;10.00;99.90;;;;;;4978589;28;20215;-71
2022/11/17 01:18:40;;;;;;;12.80;5.73;;;10.00;99.90;;;;;;4977037;28;20660;-71
2022/11/17 01:21:16;;;;;;;13.30;5.43;;;10.00;99.90;;;;;;4975895;28;20692;-70
2022/11/17 01:23:43;;;;;;;11.23;5.50;;;10.00;99.90;;;;;;4977468;28;20207;-70
2022/11/17 01:26:16;;;;;;;11.87;5.40;;;10.00;99.90;;;;;;4978161;28;20653;-71
2022/11/17 01:28:43;;;;;;;11.10;5.50;;;10.00;99.90;;;;;;4978033;28;20594;-69
2022/11/17 01:31:13;;;;;;;12.33;6.07;;;10.00;99.90;;;;;;4978576;28;20213;-72
2022/11/17 01:33:41;;;;;;;11.13;6.27;;;10.00;99.90;;;;;;4978516;28;20373;-71
2022/11/17 01:36:12;;;;;;;11.57;6.10;;;10.00;99.90;;;;;;4981320;28;20219;-71
2022/11/17 01:38:39;;;;;;;13.30;6.83;;;10.00;99.90;;;;;;4977178;28;20649;-71
2022/11/17 01:41:12;;;;;;;11.67;6.30;;;10.00;99.90;;;;;;4978565;28;20226;-71
2022/11/17 01:43:54;;;;;;;12.90;5.90;;;10.00;99.90;;;;;;4978218;28;20298;-71
2022/11/17 01:46:38;;;;;;;13.70;5.47;;;10.00;99.90;;;;;;4976691;28;20231;-71
2022/11/17 01:49:22;;;;;;;10.07;4.90;;;10.00;99.90;;;;;;4977681;28;20233;-71
2022/11/17 01:51:54;;;;;;;10.23;5.17;;;10.00;99.90;;;;;;4976239;28;20249;-71
2022/11/17 01:54:26;;;;;;;10.77;5.13;;;10.00;99.90;;;;;;4962684;28;20293;-70
2022/11/17 01:56:57;;;;;;;13.13;4.87;;;10.00;99.90;;;;;;4979739;28;20709;-71
2022/11/17 01:59:34;;;;;;;8.63;4.47;;;10.00;99.90;;;;;;4990631;28;20270;-70
2022/11/17 02:02:00;;;;;;;9.90;4.63;;;10.00;99.90;;;;;;4978028;28;20215;-70
2022/11/17 02:04:35;;;;;;;9.73;4.53;;;10.00;99.90;;;;;;4975805;28;20203;-71
2022/11/17 02:07:18;;;;;;;9.07;5.00;;;10.00;99.90;;;;;;4976188;28;20273;-70
2022/11/17 02:09:46;;;;;;;10.90;5.23;;;10.00;99.90;;;;;;4973914;28;20204;-73
2022/11/17 02:12:13;;;;;;;12.40;5.87;;;10.00;99.90;;;;;;4978249;28;20734;-71
2022/11/17 02:14:40;;;;;;;11.13;5.47;;;10.10;99.90;;;;;;4974953;28;20210;-71
2022/11/17 02:17:08;;;;;;;9.70;4.90;;;10.10;99.90;;;;;;4964269;28;20282;-71
2022/11/17 02:19:42;;;;;;;10.37;5.70;;;10.10;99.90;;;;;;4976827;28;20203;-73
2022/11/17 02:22:47;;;;;;;11.50;5.40;;;10.10;99.90;;;;;;4976804;28;20668;-72
2022/11/17 02:25:32;;;;;;;12.30;5.43;;;10.10;99.90;;;;;;4973444;28;20512;-73
2022/11/17 02:28:09;;;;;;;11.90;5.33;;;10.10;99.90;;;;;;4974535;28;20330;-72
2022/11/17 02:30:58;;;;;;;13.00;5.10;;;10.10;99.90;;;;;;4975110;28;20234;-72
2022/11/17 02:33:47;;;;;;;13.27;5.97;;;10.10;99.90;;;;;;4972438;28;20204;-72
2022/11/17 02:36:26;;;;;;;10.70;5.53;;;10.10;99.90;;;;;;4974230;28;20696;-70
2022/11/17 02:39:11;;;;;;;8.93;5.53;;;10.10;99.90;;;;;;4974197;28;20238;-71
2022/11/17 02:42:04;;;;;;;9.43;5.80;;;10.10;99.90;;;;;;4963885;28;20933;-72
2022/11/17 02:44:38;;;;;;;10.90;6.07;;;10.10;99.90;;;;;;4977670;28;20319;-71
2022/11/17 02:47:26;;;;;;;15.33;5.97;;;10.20;99.90;;;;;;4982309;28;20239;-70
2022/11/17 02:49:59;;;;;;;8.17;5.17;;;10.20;99.90;;;;;;4979928;28;20211;-71
2022/11/17 02:52:27;;;;;;;11.97;6.00;;;10.30;99.90;;;;;;4975878;28;20229;-70
2022/11/17 02:54:59;;;;;;;16.20;7.03;;;10.30;99.90;;;;;;4979975;28;20286;-70
2022/11/17 02:57:31;;;;;;;13.03;7.37;;;10.30;99.90;;;;;;4977386;28;20243;-71
2022/11/17 03:00:03;;;;;;;9.93;6.83;;;10.30;99.90;;;;;;4979212;28;20671;-71
2022/11/17 03:02:48;;;;;;;11.13;6.00;;;10.30;99.90;;;;;;4977536;28;20207;-71
2022/11/17 03:05:28;;;;;;;13.43;6.60;;;10.30;99.90;;;;;;4981561;28;20208;-70
2022/11/17 03:08:12;;;;;;;11.57;6.10;;;10.30;99.90;;;;;;4978300;28;20665;-72
2022/11/17 03:10:48;;;;;;;9.93;5.83;;;10.30;99.90;;;;;;4978096;28;20228;-71
2022/11/17 03:13:52;;;;;;;8.77;5.97;;;10.30;99.90;;;;;;4974949;28;20239;-71
2022/11/17 03:16:36;;;;;;;11.43;5.70;;;10.30;99.90;;;;;;4977880;28;20214;-71
2022/11/17 03:19:15;;;;;;;16.40;6.37;;;10.30;99.90;;;;;;4978800;28;20278;-71
2022/11/17 03:22:00;;;;;;;11.83;7.50;;;10.40;99.90;;;;;;4979227;28;20233;-71
2022/11/17 03:24:37;;;;;;;11.97;7.10;;;10.40;99.90;;;;;;4975159;28;20575;-70
2022/11/17 03:27:20;;;;;;;11.30;6.77;;;10.30;99.90;;;;;;4980737;28;20319;-70
2022/11/17 03:29:51;;;;;;;14.40;7.40;;;10.40;99.90;;;;;;4982383;28;20339;-70
2022/11/17 03:32:20;;;;;;;17.83;9.07;;;10.40;99.90;;;;;;4975953;28;20298;-71
2022/11/17 03:34:58;;;;;;;11.53;6.83;;;10.40;99.90;;;;;;4979296;28;20294;-70
2022/11/17 03:37:29;;;;;;;11.23;7.00;;;10.40;99.90;;;;;;4978526;28;20282;-71
2022/11/17 03:40:08;;;;;;;15.73;6.43;;;10.40;99.90;;;;;;4981852;28;20208;-70
2022/11/17 03:42:38;;;;;;;12.70;6.53;;;10.40;99.90;;;;;;4977677;28;20293;-71
2022/11/17 03:45:18;;;;;;;13.90;6.40;;;10.40;99.90;;;;;;4971430;28;20264;-70
2022/11/17 03:47:50;;;;;;;14.60;6.50;;;10.40;99.90;;;;;;4978760;28;20782;-71
2022/11/17 03:50:36;;;;;;;12.60;7.57;;;10.40;99.90;;;;;;4980150;28;20970;-70
2022/11/17 03:53:04;;;;;;;13.07;6.87;;;10.40;99.90;;;;;;4976500;28;20214;-69
2022/11/17 03:55:52;;;;;;;10.00;6.43;;;10.40;99.90;;;;;;4983909;28;20549;-70
2022/11/17 03:58:23;;;;;;;12.30;7.17;;;10.40;99.90;;;;;;4977903;28;20239;-72
2022/11/17 04:00:52;;;;;;;13.27;7.80;;;10.40;99.90;;;;;;4982290;28;20343;-70
2022/11/17 04:03:21;;;;;;;13.53;7.60;;;10.40;99.90;;;;;;4978949;28;20386;-71
2022/11/17 04:05:48;;;;;;;13.10;7.80;;;10.50;99.90;;;;;;4978775;28;20318;-69
2022/11/17 04:08:15;;;;;;;13.00;7.97;;;10.40;99.90;;;;;;4979009;28;20563;-71
2022/11/17 04:16:13;;;;;;;15.07;7.97;;;10.50;99.90;;;;;;4980933;28;20302;-71
2022/11/17 04:18:39;;;;;;;14.20;8.47;;;10.40;99.90;;;;;;4966410;28;20210;-71
2022/11/17 04:21:06;;;;;;;14.20;8.17;;;10.50;99.90;;;;;;4981190;28;20718;-71
2022/11/17 04:23:33;;;;;;;15.10;8.13;;;10.40;99.90;;;;;;4977194;28;20314;-71
2022/11/17 04:28:48;;;;;;;13.43;8.87;;;10.40;99.90;;;;;;4973477;28;21008;-71
2022/11/17 04:31:17;;;;;;;11.17;8.27;;;10.40;99.90;;;;;;4984971;28;20297;-70
2022/11/17 04:33:50;;;;;;;14.30;8.80;;;10.40;99.90;;;;;;4963412;28;20218;-71
2022/11/17 04:36:43;;;;;;;14.47;9.30;;;10.40;99.90;;;;;;4979033;28;20689;-72
2022/11/17 04:39:12;;;;;;;14.47;8.93;;;10.40;99.90;;;;;;4973652;28;20618;-72
2022/11/17 04:42:02;;;;;;;17.27;9.30;;;10.40;99.90;;;;;;4982187;28;20241;-71
2022/11/17 04:44:30;;;;;;;14.27;10.00;;;10.40;99.90;;;;;;4983197;28;20404;-72
2022/11/17 04:46:58;;;;;;;14.87;9.63;;;10.40;99.90;;;;;;4980044;28;20265;-72
2022/11/17 04:49:25;;;;;;;10.70;9.50;;;10.50;99.90;;;;;;4962428;28;20676;-70
2022/11/17 04:51:52;;;;;;;11.53;8.73;;;10.50;99.90;;;;;;4978073;28;20353;-71
2022/11/17 04:54:23;;;;;;;10.43;8.73;;;10.50;99.90;;;;;;4980049;28;20298;-71
2022/11/17 04:56:52;;;;;;;12.67;8.87;;;10.40;99.90;;;;;;4978211;28;20578;-72
2022/11/17 04:59:19;;;;;;;13.43;9.07;;;10.40;99.90;;;;;;4980476;28;20655;-70
2022/11/17 05:01:46;;;;;;;12.97;8.73;;;10.50;99.90;;;;;;4981016;28;20253;-72
2022/11/17 05:04:58;;;;;;;11.20;7.93;;;10.50;99.90;;;;;;4967539;28;20269;-71
2022/11/17 05:07:06;;;;;;;11.27;8.07;;;10.40;99.90;;;;;;4970137;28;20346;-72
2022/11/17 05:09:33;;;;;;;12.10;7.50;;;10.40;99.90;;;;;;4977456;28;20261;-71
2022/11/17 05:14:47;;;;;;;13.03;7.40;;;10.40;99.90;;;;;;4978036;28;20298;-72
2022/11/17 05:17:15;;;;;;;12.23;7.87;;;10.40;99.90;;;;;;4977727;28;20212;-72
2022/11/17 05:19:44;;;;;;;10.87;7.73;;;10.40;99.90;;;;;;4978957;28;20257;-72
2022/11/17 05:25:02;;;;;;;9.50;7.53;;;10.40;99.90;;;;;;4977828;28;20213;-71
2022/11/17 05:27:29;;;;;;;13.73;8.43;;;10.30;99.90;;;;;;4977110;28;20246;-71
2022/11/17 05:29:56;;;;;;;15.97;9.63;;;10.30;99.90;;;;;;4978966;28;20211;-70
2022/11/17 05:32:23;;;;;;;12.40;8.70;;;10.40;99.90;;;;;;4976603;28;20229;-71
2022/11/17 05:34:52;;;;;;;12.37;9.43;;;10.30;99.90;;;;;;4967504;28;20731;-71
2022/11/17 05:37:19;;;;;;;13.83;9.70;;;10.30;99.90;;;;;;4977089;28;20582;-70
2022/11/17 05:39:46;;;;;;;16.87;10.30;;;10.40;99.90;;;;;;4976188;28;20214;-71
2022/11/17 05:42:12;;;;;;;14.63;10.23;;;10.40;99.90;;;;;;4974826;28;20965;-70
2022/11/17 05:44:39;;;;;;;17.30;10.80;;;10.30;99.90;;;;;;4976379;28;20208;-70
2022/11/17 05:47:06;;;;;;;16.90;11.27;;;10.30;99.90;;;;;;4979057;28;20669;-70
2022/11/17 05:49:33;;;;;;;15.13;10.13;;;10.30;99.90;;;;;;4979267;28;20314;-71
2022/11/17 05:51:59;;;;;;;13.80;9.97;;;10.40;99.90;;;;;;4976185;28;20235;-70
2022/11/17 05:54:26;;;;;;;15.03;10.43;;;10.40;99.90;;;;;;4985069;28;20275;-69
2022/11/17 05:57:05;;;;;;;16.47;10.10;;;10.40;99.90;;;;;;4974469;28;20215;-70
2022/11/17 05:59:41;;;;;;;16.40;10.57;;;10.40;99.90;;;;;;4971737;28;20689;-70
2022/11/17 06:02:14;;;;;;;13.73;9.13;;;10.40;99.90;;;;;;4971071;28;20209;-71
2022/11/17 06:04:42;;;;;;;14.10;10.53;;;10.40;99.90;;;;;;4977649;28;20878;-71
2022/11/17 06:07:09;;;;;;;13.00;10.17;;;10.40;99.90;;;;;;4977449;28;20215;-70
2022/11/17 06:09:39;;;;;;;16.97;10.33;;;10.40;99.90;;;;;;4972309;28;20204;-71
2022/11/17 06:12:06;;;;;;;14.60;9.77;;;10.40;99.90;;;;;;4975326;28;20356;-70
2022/11/17 06:14:34;;;;;;;15.60;9.87;;;10.40;99.90;;;;;;4978120;28;20207;-71
2022/11/17 06:17:20;;;;;;;14.93;10.10;;;10.40;99.90;;;;;;4972937;28;20203;-71
2022/11/17 06:19:55;;;;;;;19.33;10.77;;;10.40;99.90;;;;;;4966770;28;20212;-71
2022/11/17 06:22:24;;;;;;;18.83;10.30;;;10.40;99.90;;;;;;4979212;28;20223;-72
2022/11/17 06:24:51;;;;;;;18.10;11.33;;;10.50;99.90;;;;;;4970647;28;20206;-71
2022/11/17 06:27:18;;;;;;;14.73;11.27;;;10.50;99.90;;;;;;4979027;28;20210;-69
2022/11/17 06:29:46;;;;;;;16.37;11.47;;;10.40;99.90;;;;;;4978387;28;20227;-71
2022/11/17 06:32:14;;;;;;;15.70;10.57;;;10.50;99.90;;;;;;4974530;28;20211;-71
2022/11/17 06:34:43;;;;;;;14.93;11.20;;;10.50;99.90;;;;;;4973927;28;20287;-71
2022/11/17 06:37:10;;;;;;;12.93;9.13;;;10.50;99.90;;;;;;4971607;28;20316;-71
2022/11/17 06:39:37;;;;;;;13.90;9.73;;;10.50;99.90;;;;;;4976618;28;20689;-70
2022/11/17 06:42:08;;;;;;;17.63;11.03;;;10.50;99.90;;;;;;4972471;28;20295;-71
2022/11/17 06:44:34;;;;;;;17.67;9.90;;;10.50;99.90;;;;;;4978289;28;20579;-71
2022/11/17 06:47:01;;;;;;;11.20;8.53;;;10.50;99.90;;;;;;4974916;28;20210;-73
2022/11/17 06:49:28;;;;;;;15.40;10.00;;;10.50;99.90;;;;;;4971959;28;20319;-71
2022/11/17 06:51:55;;;;;;;14.83;9.33;;;10.50;99.90;;;;;;4972963;28;20314;-72
2022/11/17 06:54:21;;;;;;;11.47;9.10;;;10.40;99.90;;;;;;4972188;28;20217;-71
2022/11/17 06:56:50;;;;;;;13.07;8.83;;;10.50;99.90;;;;;;4976658;28;20208;-72
2022/11/17 06:59:16;;;;;;;14.27;9.87;;;10.50;99.90;;;;;;4980257;28;20295;-71
2022/11/17 07:01:43;;;;;;;16.30;10.20;;;10.50;99.90;;;;;;4976724;28;20207;-71
2022/11/17 07:04:10;;;;;;;14.63;9.40;;;10.50;99.90;;;;;;4976139;28;20216;-71
2022/11/17 07:06:37;;;;;;;17.23;9.97;;;10.50;99.90;;;;;;4975700;28;20223;-72
2022/11/17 07:09:04;;;;;;;11.47;8.37;;;10.50;99.90;;;;;;4978575;28;20253;-71
2022/11/17 07:11:35;;;;;;;7.77;6.83;;;10.50;99.90;;;;;;4979913;28;20203;-71
2022/11/17 07:14:02;;;;;;;9.67;7.23;;;10.50;99.90;;;;;;4977998;28;20211;-71
2022/11/17 07:16:29;;;;;;;11.03;7.87;;;10.50;99.90;;;;;;4965767;28;20579;-70
2022/11/17 07:18:58;;;;;;;11.10;8.50;;;10.50;99.90;;;;;;4968217;28;20222;-71
2022/11/17 07:21:25;;;;;;;16.30;8.27;;;10.50;99.90;;;;;;4977372;28;20222;-72
2022/11/17 07:23:51;;;;;;;11.70;8.20;;;10.60;99.90;;;;;;4972458;28;20214;-72
2022/11/17 07:26:18;;;;;;;14.07;8.90;;;10.60;99.90;;;;;;4971851;28;20214;-71
2022/11/17 07:28:45;;;;;;;14.50;10.03;;;10.70;99.90;;;;;;4975714;28;20645;-72
2022/11/17 07:31:12;;;;;;;15.03;9.80;;;10.60;99.90;;;;;;4974663;28;20235;-72
2022/11/17 07:33:39;;;;;;;14.80;8.27;;;10.70;99.90;;;;;;4975262;28;20577;-71
2022/11/17 07:36:10;;;;;;;12.57;8.20;;;10.70;99.90;;;;;;4969644;28;20239;-71
2022/11/17 07:38:38;;;;;;;15.03;7.97;;;10.70;99.90;;;;;;4975405;28;20590;-71
2022/11/17 07:41:07;;;;;;;13.23;7.70;;;10.70;99.90;;;;;;4972992;28;20200;-70
2022/11/17 07:43:35;;;;;;;12.00;6.67;;;10.80;99.90;;;;;;4955973;28;20331;-71
2022/11/17 07:46:07;;;;;;;9.87;5.37;;;10.80;99.90;;;;;;4979194;28;20266;-71
2022/11/17 07:48:34;;;;;;;11.63;4.60;;;10.80;99.90;;;;;;4976728;28;20231;-71
2022/11/17 07:51:03;;;;;;;11.13;4.03;;;10.80;99.90;;;;;;4972255;28;20731;-70
2022/11/17 07:53:32;;;;;;;8.80;3.73;;;10.80;99.90;;;;;;4979235;28;20215;-70
2022/11/17 07:56:07;;;;;;;7.43;3.33;;;10.80;99.90;;;;;;4976419;28;20203;-70
2022/11/17 07:58:36;;;;;;;6.43;2.77;;;10.80;99.90;;;;;;4974049;28;20659;-73
2022/11/17 08:01:05;;;;;;;6.73;3.30;;;10.90;99.90;;;;;;4978554;28;20204;-71
2022/11/17 08:03:32;;;;;;;12.20;4.03;;;10.80;99.90;;;;;;4951391;28;20210;-71
2022/11/17 08:06:05;;;;;;;13.37;3.10;;;10.90;99.90;;;;;;4980353;28;20222;-71
2022/11/17 08:08:32;;;;;;;7.70;3.53;;;10.90;99.90;;;;;;4972561;28;20227;-71
2022/11/17 08:11:11;;;;;;;9.63;2.77;;;10.90;99.90;;;;;;4975188;28;20212;-71
2022/11/17 08:13:39;;;;;;;13.10;3.07;;;10.90;99.90;;;;;;4968245;28;20238;-72
2022/11/17 08:16:08;;;;;;;8.13;2.77;;;10.90;99.90;;;;;;4976181;28;20239;-71
2022/11/17 08:18:35;;;;;;;10.27;3.33;;;11.00;99.90;;;;;;4971451;28;20534;-71
2022/11/17 08:21:08;;;;;;;9.10;3.40;;;11.00;99.90;;;;;;4972373;28;20251;-71
2022/11/17 08:23:36;;;;;;;11.30;3.40;;;11.00;99.90;;;;;;4969002;28;20222;-73
2022/11/17 08:26:05;;;;;;;10.70;3.50;;;11.00;99.90;;;;;;4969936;28;20204;-73
2022/11/17 08:28:35;;;;;;;8.70;3.93;;;11.00;99.90;;;;;;4973372;28;20274;-73
2022/11/17 08:31:04;;;;;;;6.83;2.53;;;11.00;99.90;;;;;;4957427;28;20231;-73
2022/11/17 08:33:31;;;;;;;8.20;2.87;;;11.00;99.90;;;;;;4967834;28;20206;-73
2022/11/17 08:36:00;;;;;;;8.33;2.87;;;10.90;99.90;;;;;;4989362;28;20239;-74
2022/11/17 08:38:27;;;;;;;10.63;3.60;;;11.00;99.90;;;;;;4975277;28;20231;-74
2022/11/17 08:40:56;;;;;;;7.17;2.80;;;11.00;99.90;;;;;;4953673;28;20673;-73
2022/11/17 08:43:23;;;;;;;7.43;2.73;;;11.00;99.90;;;;;;4954627;28;20771;-73
2022/11/17 08:45:50;;;;;;;6.30;2.40;;;11.00;99.90;;;;;;4977355;28;20298;-73
2022/11/17 08:48:17;;;;;;;10.70;3.67;;;11.00;99.90;;;;;;4975969;28;20270;-72
2022/11/17 08:50:44;;;;;;;5.10;2.43;;;11.00;99.90;;;;;;4977484;28;20721;-72
2022/11/17 08:53:17;;;;;;;3.97;2.33;;;11.00;99.90;;;;;;4979252;28;20561;-72
2022/11/17 08:55:44;;;;;;;7.87;2.67;;;11.00;99.90;;;;;;4975783;28;20651;-74
2022/11/17 08:58:11;;;;;;;6.90;2.63;;;11.00;99.90;;;;;;4976126;28;20732;-72
2022/11/17 09:00:39;;;;;;;6.53;2.90;;;11.00;99.90;;;;;;4975763;28;20214;-73
2022/11/17 09:03:10;;;;;;;6.40;2.20;;;10.90;99.90;;;;;;4977610;28;20199;-73
2022/11/17 09:05:43;;;;;;;6.97;2.20;;;11.00;99.90;;;;;;4972510;28;20251;-73
2022/11/17 09:08:10;;;;;;;8.13;2.40;;;10.90;99.90;;;;;;4966467;28;20338;-73
2022/11/17 09:10:57;;;;;;;5.40;2.10;;;10.90;99.90;;;;;;4967743;28;20204;-73
2022/11/17 09:13:24;;;;;;;10.13;2.20;;;10.90;99.90;;;;;;4966505;28;20304;-72
2022/11/17 09:15:51;;;;;;;7.27;2.00;;;10.90;99.90;;;;;;4969435;28;20196;-71
2022/11/17 09:18:17;;;;;;;9.20;2.10;;;10.90;99.90;;;;;;4972196;28;20227;-73
2022/11/17 09:20:45;;;;;;;7.10;1.90;;;10.90;99.90;;;;;;4977558;28;20296;-72
2022/11/17 09:23:12;;;;;;;8.57;2.10;;;10.90;99.90;;;;;;4974032;28;20204;-71
2022/11/17 09:25:38;;;;;;;7.20;1.97;;;10.90;99.90;;;;;;4974964;28;20321;-73
2022/11/17 09:28:05;;;;;;;6.07;1.90;;;10.90;99.90;;;;;;4975008;28;20316;-72
2022/11/17 09:30:32;;;;;;;6.70;1.93;;;10.90;99.90;;;;;;4976900;28;20222;-74
2022/11/17 09:32:59;;;;;;;4.53;1.80;;;10.90;99.90;;;;;;4969613;28;20730;-72
2022/11/17 09:35:25;;;;;;;10.87;2.93;;;10.90;99.90;;;;;;4976833;28;20243;-72
2022/11/17 09:37:56;;;;;;;4.67;2.10;;;10.90;99.90;;;;;;4976607;28;20223;-72
2022/11/17 09:40:23;;;;;;;6.17;1.73;;;10.80;99.90;;;;;;4976719;28;20303;-72
2022/11/17 09:42:50;;;;;;;7.00;1.73;;;10.80;99.90;;;;;;4977495;28;20228;-72
2022/11/17 09:45:21;;;;;;;5.87;1.87;;;10.80;99.90;;;;;;4979045;28;20660;-72
2022/11/17 09:47:51;;;;;;;4.70;1.90;;;10.80;99.90;;;;;;4971896;28;20207;-72
2022/11/17 09:50:39;;;;;;;5.70;2.07;;;10.80;99.90;;;;;;4959224;28;20636;-72
2022/11/17 09:53:43;;;;;;;5.23;1.83;;;10.80;99.90;;;;;;4975031;28;20223;-72
2022/11/17 09:56:12;;;;;;;7.13;1.80;;;10.80;99.90;;;;;;4980606;28;20619;-74
2022/11/17 09:58:45;;;;;;;5.30;2.13;;;10.80;99.90;;;;;;4974137;28;20559;-72
2022/11/17 10:01:15;;;;;;;5.83;1.63;;;10.80;99.90;;;;;;4971821;28;20207;-72
2022/11/17 10:03:43;;;;;;;5.43;1.97;;;10.90;99.90;;;;;;4968245;28;20579;-71
2022/11/17 10:06:29;;;;;;;5.67;2.00;;;11.00;99.90;;;;;;4969710;28;20262;-71
2022/11/17 10:09:21;;;;;;;5.20;1.53;;;11.00;99.90;;;;;;4970362;28;20240;-72
2022/11/17 10:11:53;;;;;;;6.07;2.20;;;11.00;99.90;;;;;;4968274;28;20220;-72
2022/11/17 10:14:21;;;;;;;4.07;1.77;;;10.90;99.90;;;;;;4969449;28;20240;-72
2022/11/17 10:16:54;;;;;;;6.67;1.73;;;10.90;99.90;;;;;;4970491;28;20303;-71
2022/11/17 10:19:27;;;;;;;4.97;1.40;;;11.00;99.90;;;;;;4973772;28;20239;-72
2022/11/17 10:22:02;;;;;;;2.77;1.53;;;10.90;99.90;;;;;;4967759;28;20238;-71
2022/11/17 10:24:33;;;;;;;6.23;1.50;;;10.90;99.90;;;;;;4969355;28;20192;-70
2022/11/17 10:27:02;;;;;;;3.17;1.50;;;10.90;99.90;;;;;;4973499;28;20207;-71
2022/11/17 10:29:29;;;;;;;4.83;1.50;;;10.90;99.90;;;;;;4974031;28;20224;-71
2022/11/17 10:31:56;;;;;;;7.10;1.63;;;10.90;99.90;;;;;;4976205;28;20676;-69
2022/11/17 10:34:36;;;;;;;2.67;1.40;;;10.90;99.90;;;;;;4977514;28;20240;-71
2022/11/17 10:37:29;;;;;;;4.63;1.43;;;10.90;99.90;;;;;;4974729;28;20243;-71
2022/11/17 10:40:18;;;;;;;1.73;1.53;;;10.90;99.90;;;;;;4978992;28;20204;-71
2022/11/17 10:43:11;;;;;;;5.70;1.70;;;10.90;99.90;;;;;;4978179;28;20203;-71
2022/11/17 10:45:44;;;;;;;3.43;1.37;;;10.80;99.90;;;;;;4968102;28;20192;-72
2022/11/17 10:48:36;;;;;;;1.87;1.27;;;10.80;99.90;;;;;;4974417;28;20219;-70
2022/11/17 10:51:19;;;;;;;4.00;1.47;;;10.70;99.90;;;;;;4972234;28;20298;-72
2022/11/17 10:54:00;;;;;;;8.43;1.80;;;10.70;99.90;;;;;;4974093;28;20548;-72
2022/11/17 10:56:28;;;;;;;2.40;1.47;;;10.70;99.90;;;;;;4969702;28;20245;-72
2022/11/17 10:59:13;;;;;;;2.30;1.33;;;10.70;99.90;;;;;;4954673;28;20204;-71
2022/11/17 11:01:42;;;;;;;4.33;1.73;;;10.70;99.90;;;;;;4969796;28;20302;-71
2022/11/17 11:04:45;;;;;;;6.67;1.53;;;10.60;99.90;;;;;;4972647;28;20196;-71
2022/11/17 11:07:22;;;;;;;5.60;1.67;;;10.60;99.90;;;;;;4929905;29;20345;-71
2022/11/17 11:10:22;;;;;;;3.77;1.50;;;10.60;99.90;;;;;;4955455;28;20258;-72
2022/11/17 11:13:28;;;;;;;6.50;1.63;;;10.60;99.90;;;;;;4974519;28;20211;-71
2022/11/17 11:15:55;;;;;;;7.33;1.90;;;10.60;99.90;;;;;;4970048;28;20691;-71
2022/11/17 11:18:22;;;;;;;3.10;1.60;;;10.60;99.90;;;;;;4973002;28;20593;-72
2022/11/17 11:21:27;;;;;;;5.47;2.83;;;10.70;99.90;;;;;;4971315;28;20944;-72
2022/11/17 11:24:06;;;;;;;7.07;1.97;;;10.70;99.90;;;;;;4966127;28;20614;-70
2022/11/17 11:27:00;;;;;;;6.13;2.30;;;10.70;99.90;;;;;;4972964;28;20248;-70
2022/11/17 11:29:51;;;;;;;8.83;2.37;;;10.70;99.90;;;;;;4974632;28;20231;-69
2022/11/17 11:32:26;;;;;;;7.20;1.87;;;10.80;99.90;;;;;;4974094;28;20717;-71
2022/11/17 11:35:22;;;;;;;4.93;1.80;;;10.80;99.90;;;;;;4969450;28;20214;-70
2022/11/17 11:38:17;;;;;;;5.03;2.77;;;10.80;99.90;;;;;;4942620;28;20219;-70
2022/11/17 11:41:04;;;;;;;6.23;2.20;;;10.80;99.90;;;;;;4974497;28;20330;-70
2022/11/17 11:43:41;;;;;;;7.77;2.50;;;10.80;99.90;;;;;;4971202;28;20631;-70
2022/11/17 11:46:11;;;;;;;6.23;2.80;;;10.80;99.90;;;;;;4975930;28;20972;-71
2022/11/17 11:48:39;;;;;;;5.70;2.10;;;10.80;99.90;;;;;;4969689;28;20218;-70
2022/11/17 11:51:21;;;;;;;6.47;2.20;;;10.80;99.90;;;;;;4970892;28;20310;-70
2022/11/17 11:53:59;;;;;;;5.10;1.80;;;10.90;99.90;;;;;;4972533;28;20309;-70
2022/11/17 11:56:37;;;;;;;3.30;1.90;;;10.90;99.90;;;;;;4973654;28;20301;-70
2022/11/17 11:59:21;;;;;;;6.63;2.60;;;10.90;99.90;;;;;;4976538;28;20225;-71
2022/11/17 12:01:55;;;;;;;6.13;2.40;;;11.00;99.90;;;;;;4970096;28;20212;-70
2022/11/17 12:04:46;;;;;;;7.93;3.30;;;11.00;99.90;;;;;;4974822;28;20584;-71
2022/11/17 12:07:33;;;;;;;7.67;1.83;;;11.00;99.90;;;;;;4973716;28;20219;-70
2022/11/17 12:10:24;;;;;;;4.53;2.03;;;11.10;99.90;;;;;;4977063;28;20234;-69
2022/11/17 12:12:51;;;;;;;6.53;2.00;;;11.10;99.90;;;;;;4978147;28;20888;-70
2022/11/17 12:15:18;;;;;;;4.53;1.87;;;11.20;99.90;;;;;;4973530;28;20298;-70
2022/11/17 12:17:51;;;;;;;5.33;1.60;;;11.20;99.90;;;;;;4980404;28;20212;-71
2022/11/17 12:20:29;;;;;;;3.80;2.00;;;11.20;99.90;;;;;;4973856;28;20230;-70
2022/11/17 12:23:09;;;;;;;4.97;1.97;;;11.20;99.90;;;;;;4972832;28;20222;-70
2022/11/17 12:25:49;;;;;;;7.50;2.30;;;11.30;99.90;;;;;;4953567;28;20212;-70
2022/11/17 12:28:35;;;;;;;5.03;1.70;;;11.30;99.90;;;;;;4952869;28;20204;-70
2022/11/17 12:31:04;;;;;;;6.97;1.97;;;11.20;99.90;;;;;;4971869;28;20325;-70
2022/11/17 12:33:51;;;;;;;8.47;1.70;;;11.30;99.90;;;;;;4962086;28;20218;-72
2022/11/17 12:36:32;;;;;;;3.60;1.53;;;11.20;99.90;;;;;;5048442;28;20619;-70
2022/11/17 12:39:03;;;;;;;4.07;1.50;;;11.20;99.90;;;;;;5070808;28;20209;-72
2022/11/17 12:42:03;;;;;;;6.50;1.90;;;11.10;99.90;;;;;;5036803;28;20217;-71
2022/11/17 12:44:43;;;;;;;3.70;1.80;;;11.10;99.90;;;;;;5050300;28;20807;-70
2022/11/17 12:47:15;;;;;;;8.83;2.50;;;11.10;99.90;;;;;;5047577;28;20701;-71
2022/11/17 12:49:50;;;;;;;3.37;1.67;;;11.10;99.90;;;;;;5051442;28;20216;-71
2022/11/17 12:52:42;;;;;;;3.87;1.57;;;11.10;99.90;;;;;;5049368;28;20308;-70
2022/11/17 12:55:37;;;;;;;2.80;1.60;;;11.10;99.90;;;;;;5050493;28;20289;-70
2022/11/17 12:58:23;;;;;;;8.20;2.10;;;11.00;99.90;;;;;;5040897;28;20205;-70
2022/11/17 13:01:20;;;;;;;3.63;1.70;;;11.00;99.90;;;;;;5048994;28;20295;-70
2022/11/17 13:03:53;;;;;;;4.00;1.77;;;11.10;99.90;;;;;;5053425;28;20254;-70
2022/11/17 13:06:19;;;;;;;4.70;1.70;;;11.10;99.90;;;;;;5051464;28;20256;-70
2022/11/17 13:09:09;;;;;;;5.67;1.73;;;11.10;99.90;;;;;;5051287;28;20196;-72
2022/11/17 13:11:36;;;;;;;4.43;1.47;;;11.10;99.90;;;;;;5052361;28;20665;-70
2022/11/17 13:14:15;;;;;;;3.53;1.90;;;11.10;99.90;;;;;;5046288;28;20291;-70
2022/11/17 13:16:47;;;;;;;5.03;1.80;;;11.10;99.90;;;;;;5043603;28;20213;-70
2022/11/17 13:19:31;;;;;;;3.67;1.70;;;11.10;99.90;;;;;;5052045;28;20209;-70
2022/11/17 13:22:17;;;;;;;6.13;1.90;;;11.10;99.90;;;;;;5066649;28;20247;-70
2022/11/17 13:24:46;;;;;;;3.70;1.93;;;11.10;99.90;;;;;;5048357;28;20194;-70
2022/11/17 13:27:28;;;;;;;4.03;1.83;;;11.10;99.90;;;;;;5038896;28;20236;-70
2022/11/17 13:30:11;;;;;;;4.27;1.70;;;11.10;99.90;;;;;;5046977;28;20209;-70
2022/11/17 13:32:41;;;;;;;4.90;1.90;;;11.10;99.90;;;;;;5052021;28;20624;-71
2022/11/17 13:35:23;;;;;;;4.97;1.47;;;11.10;99.90;;;;;;5045061;28;20802;-70
2022/11/17 13:38:21;;;;;;;3.90;1.80;;;11.00;99.90;;;;;;5044698;28;20216;-70